Canaan Valley, West Virginia
Current Conditions -  °F | °C
As of 5:51 PM on Wednesday 22 Oct 2014 (Local Time) from KEKN Reporting Station
Light Rain Light Rain  
Wind Chill: 43°   Ceiling: 800
Heat Index: 45°   Visibility: 4mi
Dew Point: 44°   Wind: 5mph
Humidity: 97%   Direction: 340°NNW
Pressure: 30.15"   Gusts: NA
Location:  39.0849°N, 79.4037°W
Report Text: KEKN 222151Z AUTO 34004KT 4SM -RA BR OVC008 07/07 A3015 RMK AO2 CIG 006V010 SLP220 P0001 T00720067 TSNO
Loading
Personal Weather Stations






























Interactive Weather Map
Tropical Storm Tracking
New forecast layout! Learn more

10-Day Weather Forecast

Advertisements
Track Severe Weather on mobile